Terminal Aerodrome Forecast
Issued by NWS Wilmington, NC

Home | Current Version | Previous Version | Text Only | Print | Product List | Glossary On
Versions: 1 2 3 4 5 6 7 8 9 10 11 12 13 14 15 16 17 18 19 20 21
000
FTUS42 KILM 221700
TAFMYR
TAF
KMYR 221726Z 2218/2318 12007KT P6SM VCSH SCT015 BKN025 BKN060
      TEMPO 2218/2221 3SM +SHRA BR BKN015 BKN020
     FM230000 18005KT P6SM VCSH FEW020 BKN150
     FM230600 VRB04KT P6SM VCSH SCT020 SCT040 BKN150
     FM231300 28007KT P6SM SCT015 BKN150=

USA.gov is the U.S. government's official web portal to all federal, state and local government web resources and services.